Time;durP1;ratioP1;P1;durP2;ratioP2;P2;SDS_P1;SDS_P2;PMS_P1;PMS_P2;Temp;Humidity;BMP_temperature;BMP_pressure;BME280_temperature;BME280_humidity;BME280_pressure;Samples;Min_cycle;Max_cycle;Signal;HPM_P1;HPM_P2
2023/01/23 00:01:25;;;;;;;9.00;4.00;;;13.60;67.20;;;;;;4192008;28;20055;-61
2023/01/23 00:04:06;;;;;;;6.85;3.40;;;13.70;67.10;;;;;;4198211;28;20075;-61
2023/01/23 00:06:49;;;;;;;5.68;3.00;;;13.70;66.80;;;;;;4187867;28;20498;-61
2023/01/23 00:09:30;;;;;;;4.43;3.63;;;13.80;66.70;;;;;;4192035;28;20051;-61
2023/01/23 00:12:12;;;;;;;;;;;13.80;66.40;;;;;;4192597;28;20056;-61
2023/01/23 00:14:53;;;;;;;7.05;3.40;;;13.80;66.40;;;;;;4195870;28;20087;-61
2023/01/23 00:17:34;;;;;;;5.05;3.17;;;13.80;67.20;;;;;;4208694;28;20206;-62
2023/01/23 00:20:15;;;;;;;4.55;3.30;;;13.90;67.00;;;;;;4202130;28;20479;-61
2023/01/23 00:22:56;;;;;;;4.68;3.53;;;14.00;66.80;;;;;;4199733;28;20070;-61
2023/01/23 00:25:38;;;;;;;3.83;2.97;;;14.10;66.50;;;;;;4209690;28;20121;-61
2023/01/23 00:28:20;;;;;;;3.75;3.33;;;14.10;66.20;;;;;;4210645;28;20132;-62
2023/01/23 00:31:04;;;;;;;8.27;3.30;;;14.20;66.30;;;;;;4209744;28;20059;-62
2023/01/23 00:33:46;;;;;;;6.70;3.25;;;14.20;66.00;;;;;;4198900;28;20097;-61
2023/01/23 00:36:29;;;;;;;7.60;3.30;;;14.30;65.90;;;;;;4194260;28;20043;-61
2023/01/23 00:39:16;;;;;;;5.20;3.33;;;14.20;65.90;;;;;;4194570;28;20053;-61
2023/01/23 00:41:57;;;;;;;8.43;3.75;;;14.30;65.80;;;;;;4194593;28;20052;-61
2023/01/23 00:44:39;;;;;;;5.38;3.88;;;14.40;65.80;;;;;;4177011;28;20052;-61
2023/01/23 00:47:20;;;;;;;7.47;3.90;;;14.40;65.60;;;;;;4178004;28;20098;-62
2023/01/23 00:50:01;;;;;;;4.68;3.80;;;14.40;65.50;;;;;;4177884;28;20063;-61
2023/01/23 00:52:42;;;;;;;8.20;4.07;;;14.40;65.30;;;;;;4190129;28;20062;-62
2023/01/23 00:55:23;;;;;;;6.07;4.10;;;14.40;65.00;;;;;;4211127;28;20055;-61
2023/01/23 00:58:04;;;;;;;9.88;3.75;;;14.40;65.70;;;;;;4210920;28;20075;-62
2023/01/23 01:00:47;;;;;;;7.60;3.97;;;14.40;64.90;;;;;;4209261;28;20501;-62
2023/01/23 01:03:28;;;;;;;7.70;3.75;;;14.40;65.10;;;;;;4194627;28;20051;-62
2023/01/23 01:06:09;;;;;;;5.95;3.30;;;14.40;65.30;;;;;;4177352;28;20048;-60
2023/01/23 01:08:51;;;;;;;6.93;3.35;;;14.40;65.30;;;;;;4185547;28;20059;-61
2023/01/23 01:11:32;;;;;;;5.55;3.80;;;14.50;65.30;;;;;;4194115;28;20067;-61
2023/01/23 01:14:14;;;;;;;4.75;3.30;;;14.60;65.60;;;;;;4181025;28;20047;-60
2023/01/23 01:16:57;;;;;;;7.05;3.53;;;14.60;64.40;;;;;;4210594;28;20090;-61
2023/01/23 01:19:38;;;;;;;5.97;3.38;;;14.70;63.80;;;;;;4193449;28;20055;-60
2023/01/23 01:22:19;;;;;;;5.82;3.53;;;14.70;63.90;;;;;;4193770;28;20055;-61
2023/01/23 01:25:00;;;;;;;5.93;3.28;;;14.60;63.10;;;;;;4195374;28;20067;-61
2023/01/23 01:27:41;;;;;;;6.40;3.25;;;14.60;63.70;;;;;;4192874;28;20047;-61
2023/01/23 01:30:21;;;;;;;6.15;3.03;;;14.60;64.20;;;;;;4193832;28;20498;-61
2023/01/23 01:33:04;;;;;;;4.97;3.08;;;14.70;64.10;;;;;;4193640;28;20098;-61
2023/01/23 01:35:45;;;;;;;7.85;3.00;;;14.70;63.90;;;;;;4193626;28;20167;-61
2023/01/23 01:38:26;;;;;;;4.50;3.17;;;14.70;63.60;;;;;;4193787;28;20063;-61
2023/01/23 01:41:08;;;;;;;7.07;3.75;;;14.70;63.40;;;;;;4193282;28;20067;-61
2023/01/23 01:43:49;;;;;;;3.50;3.20;;;14.80;63.70;;;;;;4197881;28;20039;-61
2023/01/23 01:46:31;;;;;;;3.78;3.03;;;14.80;63.30;;;;;;4207465;28;20501;-61
2023/01/23 01:49:17;;;;;;;4.25;2.92;;;14.90;63.20;;;;;;4208954;28;20069;-61
2023/01/23 01:52:02;;;;;;;2.95;2.60;;;15.00;63.30;;;;;;4209134;28;20129;-61
2023/01/23 01:54:47;;;;;;;4.88;3.15;;;15.00;63.20;;;;;;4196690;28;20062;-61
2023/01/23 01:57:31;;;;;;;3.25;2.67;;;14.90;63.20;;;;;;4190308;28;20063;-61
2023/01/23 02:00:15;;;;;;;3.70;3.17;;;15.00;63.40;;;;;;4191754;28;20117;-62
2023/01/23 02:03:02;;;;;;;4.55;3.20;;;15.00;63.30;;;;;;4191953;28;20563;-61
2023/01/23 02:05:49;;;;;;;8.32;3.60;;;15.00;63.20;;;;;;4181874;28;20577;-61
2023/01/23 02:08:35;;;;;;;5.72;3.28;;;15.00;63.00;;;;;;4190718;28;20047;-61
2023/01/23 02:11:17;;;;;;;4.80;3.15;;;15.00;63.10;;;;;;4190325;28;20556;-62
2023/01/23 02:13:58;;;;;;;9.45;3.95;;;15.00;63.10;;;;;;4199352;28;20083;-61
2023/01/23 02:16:45;;;;;;;3.88;3.40;;;15.00;63.10;;;;;;4209850;28;20125;-60
2023/01/23 02:19:39;;;;;;;6.32;3.80;;;15.00;63.30;;;;;;4209565;28;20612;-61
2023/01/23 02:22:31;;;;;;;6.20;3.95;;;14.90;63.30;;;;;;4209517;28;20047;-60
2023/01/23 02:25:22;;;;;;;5.93;3.47;;;14.90;63.50;;;;;;4175342;28;20052;-61
2023/01/23 02:28:06;;;;;;;5.05;3.30;;;14.90;63.60;;;;;;4176405;28;20094;-61
2023/01/23 02:30:50;;;;;;;6.32;3.63;;;14.90;63.80;;;;;;4164585;28;20398;-61
2023/01/23 02:33:50;;;;;;;5.25;3.63;;;14.90;64.10;;;;;;4151322;28;20372;-61
2023/01/23 02:36:33;;;;;;;3.53;3.10;;;14.90;63.80;;;;;;4163469;28;20052;-61
2023/01/23 02:39:17;;;;;;;5.65;3.78;;;15.00;63.70;;;;;;4175145;28;20056;-61
2023/01/23 02:42:03;;;;;;;7.00;3.70;;;15.00;63.60;;;;;;4186554;28;20055;-61
2023/01/23 02:45:15;;;;;;;5.05;3.17;;;14.90;63.10;;;;;;4199823;28;20568;-61
2023/01/23 02:47:56;;;;;;;4.18;3.10;;;14.90;63.20;;;;;;4191365;28;20055;-61
2023/01/23 02:50:36;;;;;;;5.20;3.45;;;14.90;63.60;;;;;;4179946;28;20189;-61
2023/01/23 02:53:17;;;;;;;5.20;3.83;;;14.80;63.70;;;;;;4193168;28;20171;-61
2023/01/23 02:55:59;;;;;;;7.22;3.40;;;14.80;64.00;;;;;;4208103;28;20474;-61
2023/01/23 03:01:41;;;;;;;5.32;3.88;;;14.90;63.20;;;;;;4192201;28;20087;-61
2023/01/23 03:04:22;;;;;;;4.82;3.40;;;15.00;63.00;;;;;;4190638;28;20058;-62
2023/01/23 03:07:02;;;;;;;3.20;2.90;;;15.10;63.10;;;;;;4205375;28;20137;-61
2023/01/23 03:09:46;;;;;;;3.55;3.25;;;15.10;62.90;;;;;;4208212;28;20572;-61
2023/01/23 03:12:27;;;;;;;3.53;3.22;;;15.20;62.40;;;;;;4209345;28;20074;-61
2023/01/23 03:15:09;;;;;;;4.68;3.15;;;15.30;62.60;;;;;;4193901;28;20415;-61
2023/01/23 03:17:51;;;;;;;5.43;3.60;;;15.30;62.50;;;;;;4192106;28;20407;-62
2023/01/23 03:20:39;;;;;;;7.43;3.20;;;15.40;62.20;;;;;;4192053;28;20101;-62
2023/01/23 03:23:20;;;;;;;6.45;3.70;;;15.50;61.60;;;;;;4191925;28;20411;-61
2023/01/23 03:26:01;;;;;;;6.85;3.38;;;15.50;61.50;;;;;;4177010;28;20801;-61
2023/01/23 03:31:42;;;;;;;6.93;3.38;;;15.50;61.90;;;;;;4190858;28;20407;-61
2023/01/23 03:34:28;;;;;;;3.90;3.20;;;15.50;61.00;;;;;;4174532;28;20486;-61
2023/01/23 03:37:11;;;;;;;7.53;3.22;;;15.50;61.30;;;;;;4174437;28;20052;-61
2023/01/23 03:42:52;;;;;;;5.30;2.65;;;15.50;61.60;;;;;;4199261;28;20406;-62
2023/01/23 03:45:38;;;;;;;6.35;3.08;;;15.40;61.70;;;;;;4207959;28;20050;-61
2023/01/23 03:48:20;;;;;;;5.80;3.05;;;15.40;61.00;;;;;;4207957;28;20154;-61
2023/01/23 03:51:02;;;;;;;4.63;2.60;;;15.40;61.70;;;;;;4207728;28;20071;-61
2023/01/23 03:53:45;;;;;;;5.93;3.00;;;15.50;61.60;;;;;;4207847;28;20446;-61
2023/01/23 03:56:27;;;;;;;6.57;2.65;;;15.50;61.50;;;;;;4181579;28;20052;-61
2023/01/23 03:59:09;;;;;;;;;;;15.50;61.60;;;;;;4193888;28;20122;-61
2023/01/23 04:01:50;;;;;;;3.25;2.50;;;15.50;61.20;;;;;;4194010;28;20402;-61
2023/01/23 04:04:31;;;;;;;3.43;2.57;;;15.50;61.80;;;;;;4188163;28;20132;-62
2023/01/23 04:07:14;;;;;;;5.82;2.85;;;15.40;61.50;;;;;;4210283;28;20501;-61
2023/01/23 04:09:56;;;;;;;9.02;2.83;;;15.40;61.80;;;;;;4210575;28;20055;-61
2023/01/23 04:12:38;;;;;;;;;;;15.50;61.80;;;;;;4207114;28;20051;-62
2023/01/23 04:15:21;;;;;;;4.85;3.17;;;15.60;61.80;;;;;;4192683;28;19965;-62
2023/01/23 04:18:04;;;;;;;3.55;2.88;;;15.60;61.30;;;;;;4193816;28;20105;-61
2023/01/23 04:20:45;;;;;;;3.67;2.75;;;15.60;60.90;;;;;;4193896;28;20121;-62
2023/01/23 04:23:28;;;;;;;4.22;2.90;;;15.60;60.70;;;;;;4195108;28;20055;-61
2023/01/23 04:26:09;;;;;;;5.68;2.85;;;15.60;60.90;;;;;;4193605;28;20051;-61
2023/01/23 04:28:50;;;;;;;5.10;3.30;;;15.60;61.80;;;;;;4191434;28;20078;-62
2023/01/23 04:31:31;;;;;;;3.78;3.00;;;15.60;60.90;;;;;;4194228;28;20506;-61
2023/01/23 04:34:12;;;;;;;;;;;15.60;60.90;;;;;;4189190;28;20051;-61
2023/01/23 04:36:55;;;;;;;7.40;3.00;;;15.60;60.20;;;;;;4188714;28;20022;-61
2023/01/23 04:39:38;;;;;;;4.95;2.72;;;15.60;60.90;;;;;;4188495;28;20122;-62
2023/01/23 04:42:19;;;;;;;4.15;3.00;;;15.50;61.30;;;;;;4186998;28;20538;-60
2023/01/23 04:45:17;;;;;;;4.60;2.85;;;15.50;60.80;;;;;;4187979;28;20083;-61
2023/01/23 04:48:16;;;;;;;3.78;2.90;;;15.40;60.70;;;;;;4177928;28;20055;-61
2023/01/23 04:50:57;;;;;;;5.90;2.85;;;15.40;61.20;;;;;;4206335;28;20105;-62
2023/01/23 04:53:38;;;;;;;3.05;2.70;;;15.20;61.40;;;;;;4208453;28;20190;-61
2023/01/23 04:56:22;;;;;;;4.10;2.58;;;15.20;62.00;;;;;;4209934;28;20047;-62
2023/01/23 04:59:04;;;;;;;4.78;3.30;;;15.10;62.10;;;;;;4209779;28;20086;-61
2023/01/23 05:01:45;;;;;;;5.63;3.38;;;15.00;62.70;;;;;;4187318;28;20242;-62
2023/01/23 05:04:26;;;;;;;4.63;3.47;;;15.00;62.90;;;;;;4204647;28;20505;-61
2023/01/23 05:07:08;;;;;;;5.35;3.20;;;15.10;62.80;;;;;;4193690;28;20060;-61
2023/01/23 05:09:53;;;;;;;5.85;3.30;;;15.20;62.10;;;;;;4195022;28;20063;-62
2023/01/23 05:12:35;;;;;;;;;;;15.10;62.10;;;;;;4210127;28;20101;-61
2023/01/23 05:15:17;;;;;;;4.70;2.67;;;15.10;62.60;;;;;;4209776;28;20631;-61
2023/01/23 05:17:59;;;;;;;3.00;2.80;;;15.10;62.40;;;;;;4178808;28;20075;-61
2023/01/23 05:20:40;;;;;;;4.68;3.10;;;15.00;62.00;;;;;;4158819;28;20053;-61
2023/01/23 05:23:21;;;;;;;4.43;3.22;;;14.90;62.60;;;;;;4158837;28;20061;-61
2023/01/23 05:26:04;;;;;;;3.75;3.28;;;14.90;63.20;;;;;;4145513;28;20612;-60
2023/01/23 05:28:47;;;;;;;5.80;3.45;;;14.90;64.30;;;;;;4159512;28;20152;-61
2023/01/23 05:31:28;;;;;;;5.93;2.97;;;15.00;63.40;;;;;;4179467;28;20056;-61
2023/01/23 05:34:32;;;;;;;4.35;2.83;;;15.10;63.10;;;;;;4176466;28;20064;-61
2023/01/23 05:37:16;;;;;;;6.00;3.38;;;15.30;62.80;;;;;;4174412;28;20094;-61
2023/01/23 05:40:00;;;;;;;5.28;3.83;;;15.30;62.60;;;;;;4162922;28;20052;-62
2023/01/23 05:43:01;;;;;;;4.37;3.50;;;15.30;62.50;;;;;;4156459;28;20060;-61
2023/01/23 05:46:09;;;;;;;4.18;3.45;;;15.50;62.40;;;;;;4158152;28;20081;-60
2023/01/23 05:49:00;;;;;;;5.82;3.10;;;15.60;61.90;;;;;;4170493;28;20051;-61
2023/01/23 05:51:41;;;;;;;5.00;3.60;;;15.60;61.20;;;;;;4186875;28;20415;-60
2023/01/23 05:54:21;;;;;;;5.67;3.60;;;15.60;60.90;;;;;;4192510;28;20051;-61
2023/01/23 05:57:04;;;;;;;3.40;2.92;;;15.60;60.90;;;;;;4192158;28;20294;-60
2023/01/23 06:00:15;;;;;;;4.50;3.50;;;15.60;60.90;;;;;;4176772;28;20059;-61
2023/01/23 06:03:20;;;;;;;3.40;3.13;;;15.60;62.20;;;;;;4176595;28;20074;-60
2023/01/23 06:06:14;;;;;;;4.90;3.22;;;15.60;61.10;;;;;;4181046;28;20051;-61
2023/01/23 06:08:55;;;;;;;4.95;2.90;;;15.60;61.00;;;;;;4191557;28;20058;-60
2023/01/23 06:11:36;;;;;;;4.72;2.92;;;15.60;61.30;;;;;;4203249;28;20082;-60
2023/01/23 06:14:17;;;;;;;4.75;3.05;;;15.60;60.90;;;;;;4207340;28;20124;-61
2023/01/23 06:16:59;;;;;;;5.80;3.38;;;15.70;60.90;;;;;;4207863;28;20059;-61
2023/01/23 06:19:41;;;;;;;4.75;3.20;;;15.70;60.90;;;;;;4192201;28;20055;-61
2023/01/23 06:22:23;;;;;;;4.55;3.25;;;15.70;60.40;;;;;;4191771;28;20047;-61
2023/01/23 06:25:13;;;;;;;4.77;3.90;;;15.70;61.00;;;;;;4175492;28;20060;-61
2023/01/23 06:27:55;;;;;;;5.68;3.65;;;15.80;61.30;;;;;;4175153;28;20142;-61
2023/01/23 06:30:38;;;;;;;3.63;3.33;;;15.80;61.00;;;;;;4175155;28;20126;-61
2023/01/23 06:33:30;;;;;;;4.63;3.35;;;15.80;61.00;;;;;;4186687;28;20102;-61
2023/01/23 06:36:12;;;;;;;6.97;4.05;;;15.80;61.20;;;;;;4188783;28;20051;-62
2023/01/23 06:38:54;;;;;;;7.00;3.78;;;15.80;61.60;;;;;;4191882;28;20051;-62
2023/01/23 06:41:40;;;;;;;5.43;3.67;;;15.80;61.70;;;;;;4191581;28;20089;-62
2023/01/23 06:44:25;;;;;;;5.75;3.83;;;15.90;61.60;;;;;;4189893;28;20051;-62
2023/01/23 06:47:07;;;;;;;4.78;4.25;;;15.90;61.20;;;;;;4192864;28;20169;-61
2023/01/23 06:49:48;;;;;;;4.70;3.85;;;15.90;61.20;;;;;;4207590;28;20046;-62
2023/01/23 06:52:32;;;;;;;;;;;15.90;61.10;;;;;;4179945;28;20047;-62
2023/01/23 06:55:12;;;;;;;5.90;4.10;;;15.90;61.10;;;;;;4191466;28;19965;-61
2023/01/23 06:57:56;;;;;;;5.65;4.43;;;15.80;61.30;;;;;;4191319;28;20060;-61
2023/01/23 07:00:38;;;;;;;5.45;3.95;;;15.80;61.20;;;;;;4205181;28;20063;-63
2023/01/23 07:03:22;;;;;;;4.45;4.10;;;15.80;61.30;;;;;;4174895;28;20048;-63
2023/01/23 07:06:05;;;;;;;4.63;4.20;;;15.80;61.50;;;;;;4175299;28;20044;-63
2023/01/23 07:08:48;;;;;;;6.53;4.57;;;15.80;61.20;;;;;;4180048;28;20059;-63
2023/01/23 07:11:30;;;;;;;4.20;3.65;;;15.80;61.40;;;;;;4193752;28;20055;-63
2023/01/23 07:14:11;;;;;;;6.63;4.93;;;15.80;61.90;;;;;;4189821;28;20052;-62
2023/01/23 07:16:54;;;;;;;4.72;3.95;;;15.70;61.10;;;;;;4208081;28;20091;-63
2023/01/23 07:19:35;;;;;;;6.97;4.63;;;15.60;61.50;;;;;;4207222;28;20486;-63
2023/01/23 07:22:21;;;;;;;4.85;4.35;;;15.60;62.10;;;;;;4191182;28;20055;-63
2023/01/23 07:25:04;;;;;;;8.23;4.90;;;15.60;62.20;;;;;;4191988;28;20051;-63
2023/01/23 07:27:44;;;;;;;4.88;4.38;;;15.60;61.70;;;;;;4192241;28;20054;-63
2023/01/23 07:30:26;;;;;;;4.65;4.13;;;15.50;60.90;;;;;;4194901;28;20525;-63
2023/01/23 07:33:07;;;;;;;7.70;4.75;;;15.50;62.00;;;;;;4195558;28;20133;-63
2023/01/23 07:35:48;;;;;;;7.18;4.47;;;15.60;62.20;;;;;;4195330;28;20063;-63
2023/01/23 07:38:29;;;;;;;4.72;3.95;;;15.60;61.70;;;;;;4185609;28;20399;-63
2023/01/23 07:41:12;;;;;;;4.20;3.80;;;15.70;60.90;;;;;;4195668;28;20063;-63
2023/01/23 07:43:52;;;;;;;6.25;4.35;;;15.70;61.20;;;;;;4211931;28;20178;-63
2023/01/23 07:46:33;;;;;;;4.70;4.07;;;15.60;61.60;;;;;;4212085;28;20051;-63
2023/01/23 07:49:15;;;;;;;6.05;4.20;;;15.70;62.00;;;;;;4212383;28;20051;-63
2023/01/23 07:51:56;;;;;;;3.55;3.25;;;15.70;62.00;;;;;;4212205;28;20046;-63
2023/01/23 07:54:37;;;;;;;3.95;3.58;;;15.70;61.60;;;;;;4202950;28;20063;-63
2023/01/23 07:57:20;;;;;;;4.00;3.42;;;15.70;61.50;;;;;;4191881;28;20051;-64
2023/01/23 08:00:00;;;;;;;5.40;3.75;;;15.80;61.50;;;;;;4190827;28;20091;-62
2023/01/23 08:02:41;;;;;;;5.68;3.60;;;15.80;61.50;;;;;;4193020;28;20047;-63
2023/01/23 08:05:22;;;;;;;4.03;3.50;;;15.80;61.50;;;;;;4195241;28;20115;-61
2023/01/23 08:08:03;;;;;;;3.73;3.43;;;15.80;61.70;;;;;;4183796;28;20101;-62
2023/01/23 08:10:53;;;;;;;5.90;3.50;;;15.70;61.40;;;;;;4193732;28;20090;-61
2023/01/23 08:13:35;;;;;;;3.65;3.42;;;15.80;62.30;;;;;;4198207;28;20113;-62
2023/01/23 08:16:16;;;;;;;3.20;2.90;;;15.70;63.20;;;;;;4180630;28;20051;-62
2023/01/23 08:18:57;;;;;;;4.50;3.65;;;15.70;63.60;;;;;;4185193;28;20824;-61
2023/01/23 08:21:39;;;;;;;;;;;15.80;64.40;;;;;;4178704;28;20052;-62
2023/01/23 08:24:20;;;;;;;3.17;2.88;;;15.80;64.40;;;;;;4183609;28;19931;-62
2023/01/23 08:27:01;;;;;;;3.35;3.05;;;15.80;63.60;;;;;;4194674;28;20137;-62
2023/01/23 08:29:43;;;;;;;3.75;3.45;;;15.80;63.10;;;;;;4194607;28;20129;-62
2023/01/23 08:32:24;;;;;;;5.38;3.22;;;15.70;62.00;;;;;;4194803;28;20497;-61
2023/01/23 08:35:06;;;;;;;3.35;3.03;;;15.70;62.40;;;;;;4194774;28;20505;-62
2023/01/23 08:37:47;;;;;;;4.22;2.97;;;15.60;62.50;;;;;;4194838;28;20179;-61
2023/01/23 08:40:29;;;;;;;4.78;3.53;;;15.60;62.40;;;;;;4194685;28;20602;-60
2023/01/23 08:43:12;;;;;;;4.18;3.22;;;15.50;61.10;;;;;;4204685;28;20055;-61
2023/01/23 08:45:56;;;;;;;4.20;3.15;;;15.40;61.60;;;;;;4200842;28;20120;-61
2023/01/23 08:48:37;;;;;;;3.53;3.22;;;15.30;61.60;;;;;;4194481;28;20048;-61
2023/01/23 08:51:19;;;;;;;6.00;3.47;;;15.20;61.70;;;;;;4194495;28;20050;-62
2023/01/23 08:54:00;;;;;;;3.50;3.25;;;15.20;62.00;;;;;;4177742;28;20446;-61
2023/01/23 08:56:41;;;;;;;4.05;3.75;;;15.10;62.80;;;;;;4177529;28;20470;-61
2023/01/23 08:59:22;;;;;;;4.25;3.85;;;15.10;64.00;;;;;;4177826;28;20519;-61
2023/01/23 09:02:04;;;;;;;4.20;3.88;;;15.10;65.10;;;;;;4183983;28;20506;-61
2023/01/23 09:04:45;;;;;;;4.65;4.28;;;15.10;64.70;;;;;;4193373;28;20067;-61
2023/01/23 09:07:26;;;;;;;4.60;4.30;;;15.00;64.90;;;;;;4173780;28;20121;-61
2023/01/23 09:10:08;;;;;;;8.45;4.07;;;15.00;64.50;;;;;;4193126;28;20461;-61
2023/01/23 09:12:51;;;;;;;5.28;4.28;;;15.00;64.50;;;;;;4193657;28;20105;-60
2023/01/23 09:15:32;;;;;;;5.00;4.03;;;15.00;63.90;;;;;;4193876;28;20054;-60
2023/01/23 09:18:15;;;;;;;6.15;5.03;;;15.00;63.40;;;;;;4196695;28;20117;-61
2023/01/23 09:20:56;;;;;;;5.45;4.93;;;15.00;62.80;;;;;;4188937;28;20051;-61
2023/01/23 09:23:37;;;;;;;5.00;4.60;;;14.90;62.50;;;;;;4193862;28;20158;-61
2023/01/23 09:26:18;;;;;;;5.25;4.75;;;14.90;63.10;;;;;;4193929;28;20048;-61
2023/01/23 09:28:59;;;;;;;;;;;14.90;63.50;;;;;;4194158;28;20059;-61
2023/01/23 09:31:40;;;;;;;4.80;4.38;;;14.90;64.90;;;;;;4204256;28;19963;-61
2023/01/23 09:34:22;;;;;;;5.60;5.10;;;14.90;65.30;;;;;;4185422;28;20415;-61
2023/01/23 09:37:03;;;;;;;6.18;5.18;;;14.90;65.50;;;;;;4177050;28;20063;-61
2023/01/23 09:39:44;;;;;;;5.85;4.90;;;14.90;65.10;;;;;;4176920;28;20495;-62
2023/01/23 09:42:32;;;;;;;5.63;4.95;;;14.80;64.60;;;;;;4177324;28;20483;-61
2023/01/23 09:45:19;;;;;;;5.60;5.10;;;14.80;64.30;;;;;;4193965;28;20126;-61
2023/01/23 09:48:13;;;;;;;5.47;4.97;;;14.80;64.80;;;;;;4192883;28;20052;-61
2023/01/23 09:51:01;;;;;;;5.97;5.47;;;14.90;64.70;;;;;;4204834;28;20411;-61
2023/01/23 09:53:42;;;;;;;6.25;5.65;;;14.90;64.60;;;;;;4209636;28;20047;-61
2023/01/23 09:56:38;;;;;;;7.90;5.47;;;14.80;65.30;;;;;;4197934;28;20048;-62
2023/01/23 09:59:29;;;;;;;5.85;5.32;;;14.80;64.70;;;;;;4175241;28;20052;-61
2023/01/23 10:02:18;;;;;;;8.95;5.93;;;14.80;65.50;;;;;;4196653;28;20054;-61
2023/01/23 10:05:01;;;;;;;7.72;5.80;;;14.90;64.30;;;;;;4177300;28;20076;-61
2023/01/23 10:07:58;;;;;;;6.70;6.00;;;15.00;63.00;;;;;;4193221;28;20085;-61
2023/01/23 10:10:57;;;;;;;6.93;6.32;;;15.00;63.50;;;;;;4198525;28;20181;-61
2023/01/23 10:13:57;;;;;;;8.07;6.57;;;14.90;64.10;;;;;;4185206;28;20055;-60
2023/01/23 10:16:50;;;;;;;8.27;6.25;;;15.00;64.10;;;;;;4181469;28;20060;-62
2023/01/23 10:19:46;;;;;;;7.70;6.70;;;15.00;63.30;;;;;;4175680;28;20060;-61
2023/01/23 10:22:35;;;;;;;9.40;7.07;;;15.10;62.20;;;;;;4184231;28;20067;-63
2023/01/23 10:25:22;;;;;;;7.40;6.70;;;15.10;62.90;;;;;;4181900;28;20529;-63
2023/01/23 10:28:17;;;;;;;6.85;5.95;;;15.00;62.90;;;;;;4177029;28;20407;-64
2023/01/23 10:31:01;;;;;;;8.65;7.25;;;15.00;62.70;;;;;;4182371;28;20419;-63
2023/01/23 10:33:49;;;;;;;7.40;6.75;;;15.00;61.80;;;;;;4174290;28;20199;-62
2023/01/23 10:36:34;;;;;;;7.75;6.97;;;14.90;62.50;;;;;;4179468;28;20494;-61
2023/01/23 10:39:34;;;;;;;8.93;7.18;;;14.90;63.20;;;;;;4184260;28;20059;-63
2023/01/23 10:42:20;;;;;;;6.63;6.03;;;14.90;63.70;;;;;;4175979;28;20136;-64
2023/01/23 10:45:01;;;;;;;7.88;7.07;;;14.80;63.60;;;;;;4184346;28;20063;-62
2023/01/23 10:47:45;;;;;;;7.47;6.70;;;14.80;63.00;;;;;;4181040;28;20137;-63
2023/01/23 10:50:38;;;;;;;7.13;6.43;;;14.80;62.80;;;;;;4184246;28;20177;-63
2023/01/23 10:53:21;;;;;;;7.25;6.55;;;14.80;61.50;;;;;;4179302;28;20044;-63
2023/01/23 10:56:02;;;;;;;8.20;7.35;;;14.80;61.60;;;;;;4176097;28;20060;-63
2023/01/23 10:58:45;;;;;;;;;;;14.80;62.10;;;;;;4178835;28;20130;-63
2023/01/23 11:01:27;;;;;;;8.40;6.47;;;14.80;60.90;;;;;;4181061;28;20287;-63
2023/01/23 11:04:18;;;;;;;8.13;7.32;;;14.80;63.00;;;;;;4164201;28;20047;-62
2023/01/23 11:07:06;;;;;;;10.45;6.88;;;14.90;63.00;;;;;;4189431;28;20047;-63
2023/01/23 11:09:54;;;;;;;8.27;6.72;;;14.90;61.80;;;;;;4189077;28;20093;-63
2023/01/23 11:12:47;;;;;;;7.00;6.20;;;14.90;61.20;;;;;;4183328;28;20052;-62
2023/01/23 11:15:33;;;;;;;7.35;6.65;;;14.90;61.70;;;;;;4172978;28;20052;-62
2023/01/23 11:18:31;;;;;;;8.05;7.28;;;14.90;62.90;;;;;;4175456;28;20051;-61
2023/01/23 11:21:21;;;;;;;7.10;6.40;;;15.00;62.10;;;;;;4187451;28;20048;-61
2023/01/23 11:24:16;;;;;;;7.60;6.78;;;15.10;62.30;;;;;;4173738;28;20552;-62
2023/01/23 11:27:00;;;;;;;9.82;6.95;;;15.10;63.00;;;;;;4180297;28;20403;-62
2023/01/23 11:30:07;;;;;;;7.57;6.75;;;15.10;63.40;;;;;;4176934;28;20179;-62
2023/01/23 11:32:54;;;;;;;7.72;6.72;;;15.20;62.30;;;;;;4172582;28;20071;-61
2023/01/23 11:36:07;;;;;;;7.38;6.15;;;15.20;62.30;;;;;;4189242;28;20047;-62
2023/01/23 11:38:53;;;;;;;7.22;6.57;;;15.20;62.10;;;;;;4171775;28;20098;-61
2023/01/23 11:41:35;;;;;;;8.98;6.45;;;15.10;62.30;;;;;;4148489;28;20517;-62
2023/01/23 11:44:18;;;;;;;8.23;7.03;;;15.10;63.00;;;;;;4169522;28;20175;-62
2023/01/23 11:47:21;;;;;;;9.15;7.10;;;15.00;62.20;;;;;;4172227;28;20052;-61
2023/01/23 11:50:25;;;;;;;6.90;6.22;;;14.90;62.10;;;;;;4178933;28;20059;-61
2023/01/23 11:53:18;;;;;;;10.50;6.40;;;14.80;62.20;;;;;;4188036;28;20068;-61
2023/01/23 11:56:33;;;;;;;9.13;6.70;;;14.80;63.00;;;;;;4177731;28;20190;-64
2023/01/23 11:59:53;;;;;;;10.75;7.35;;;14.70;63.50;;;;;;4173139;28;20187;-64
2023/01/23 12:03:03;;;;;;;7.13;6.53;;;14.80;63.90;;;;;;4172987;28;20056;-64
2023/01/23 12:06:24;;;;;;;7.13;6.43;;;14.70;64.20;;;;;;4173140;28;20052;-64
2023/01/23 12:09:11;;;;;;;6.45;5.95;;;14.70;63.90;;;;;;4178105;28;20762;-65
2023/01/23 12:12:04;;;;;;;8.80;7.18;;;14.80;63.80;;;;;;4175608;28;20051;-64
2023/01/23 12:14:58;;;;;;;7.15;6.53;;;14.90;64.20;;;;;;4179614;28;20429;-63
2023/01/23 12:17:43;;;;;;;7.43;6.63;;;14.90;63.40;;;;;;4183055;28;20671;-63
2023/01/23 12:20:33;;;;;;;7.05;6.25;;;15.00;63.70;;;;;;4186702;28;20058;-63
2023/01/23 12:23:30;;;;;;;6.82;6.03;;;15.00;62.90;;;;;;4183745;28;20051;-63
2023/01/23 12:26:14;;;;;;;6.68;6.03;;;15.00;62.50;;;;;;4184819;28;20130;-64
2023/01/23 12:29:26;;;;;;;7.78;6.50;;;15.10;63.40;;;;;;4183574;28;20059;-64
2023/01/23 12:32:21;;;;;;;6.88;6.15;;;15.10;63.50;;;;;;4178456;28;20507;-64
2023/01/23 12:35:19;;;;;;;7.75;6.93;;;15.20;63.10;;;;;;4151386;28;20055;-63
2023/01/23 12:38:21;;;;;;;9.23;6.82;;;15.30;63.10;;;;;;4179869;28;20048;-63
2023/01/23 12:41:14;;;;;;;7.15;6.47;;;15.30;63.00;;;;;;4160479;28;20055;-63
2023/01/23 12:44:01;;;;;;;8.57;7.07;;;15.30;63.20;;;;;;4180481;28;20179;-63
2023/01/23 12:46:49;;;;;;;6.97;6.10;;;15.30;63.50;;;;;;4172041;28;20185;-64
2023/01/23 12:49:37;;;;;;;6.70;5.72;;;15.30;63.70;;;;;;4177174;28;20188;-63
2023/01/23 12:52:23;;;;;;;7.10;6.13;;;15.30;64.10;;;;;;4171761;28;20503;-65
2023/01/23 12:55:14;;;;;;;7.15;6.45;;;15.20;64.50;;;;;;4159617;28;20080;-63
2023/01/23 12:57:59;;;;;;;6.50;5.90;;;15.20;64.90;;;;;;4184565;28;20063;-63
2023/01/23 13:01:09;;;;;;;6.53;5.90;;;15.30;64.90;;;;;;4175646;28;20137;-63
2023/01/23 13:04:07;;;;;;;7.20;6.50;;;15.30;65.10;;;;;;4187959;28;20105;-64
2023/01/23 13:06:58;;;;;;;7.28;6.30;;;15.30;65.40;;;;;;4185489;28;20096;-63
2023/01/23 13:09:50;;;;;;;9.57;7.07;;;15.40;65.30;;;;;;4185858;28;20043;-63
2023/01/23 13:12:31;;;;;;;8.35;6.22;;;15.50;64.60;;;;;;4181073;28;20154;-64
2023/01/23 13:15:33;;;;;;;6.32;5.82;;;15.50;64.60;;;;;;4185044;28;20051;-63
2023/01/23 13:18:26;;;;;;;7.10;6.43;;;15.60;63.80;;;;;;4179235;28;20048;-62
2023/01/23 13:27:45;;;;;;;7.45;6.75;;;15.70;63.10;;;;;;4175693;28;20163;-62
2023/01/23 13:30:43;;;;;;;6.97;6.28;;;15.70;62.90;;;;;;4184046;28;20155;-62
2023/01/23 13:33:54;;;;;;;7.25;6.55;;;15.70;61.40;;;;;;4185768;28;20509;-62
2023/01/23 13:36:43;;;;;;;7.45;6.45;;;15.60;61.80;;;;;;4186159;28;20709;-63
2023/01/23 13:39:29;;;;;;;8.00;6.07;;;15.60;62.10;;;;;;4182253;28;20532;-63
2023/01/23 13:42:35;;;;;;;6.88;6.28;;;15.50;62.10;;;;;;4184230;28;20063;-60
2023/01/23 13:45:27;;;;;;;7.03;6.35;;;15.40;62.10;;;;;;4182506;28;20059;-60
2023/01/23 13:51:49;;;;;;;6.38;5.78;;;15.20;61.80;;;;;;4106398;28;20112;-60
2023/01/23 13:57:56;;;;;;;7.53;6.78;;;15.00;63.80;;;;;;4027697;29;20137;-60
2023/01/23 14:07:47;;;;;;;7.10;6.47;;;14.90;65.40;;;;;;3879568;30;20333;-60
2023/01/23 14:10:45;;;;;;;7.63;6.38;;;14.90;65.30;;;;;;3865749;30;20065;-59
2023/01/23 14:13:48;;;;;;;8.93;6.90;;;15.00;65.20;;;;;;3865793;30;20100;-60
2023/01/23 14:16:46;;;;;;;11.30;6.80;;;15.00;65.10;;;;;;3884506;30;20098;-60
2023/01/23 14:19:04;;;;;;;8.13;6.23;;;15.00;65.00;;;;;;4178781;27;1264724;-61
2023/01/23 14:22:04;;;;;;;8.25;6.22;;;15.10;64.80;;;;;;4151123;28;20171;-61
2023/01/23 14:24:47;;;;;;;8.75;6.35;;;15.10;64.60;;;;;;4133647;28;20092;-60
2023/01/23 14:27:32;;;;;;;8.40;7.15;;;15.10;64.40;;;;;;4136267;28;20410;-60
2023/01/23 14:30:29;;;;;;;8.45;6.40;;;15.20;64.40;;;;;;4151460;28;20075;-61
2023/01/23 14:33:17;;;;;;;6.30;5.70;;;15.20;64.20;;;;;;4140812;28;20057;-60
2023/01/23 14:35:59;;;;;;;7.10;6.18;;;15.20;63.80;;;;;;4151809;28;20409;-60
2023/01/23 14:38:40;;;;;;;6.35;5.85;;;15.20;63.30;;;;;;4152035;28;20057;-61
2023/01/23 14:41:25;;;;;;;6.72;6.03;;;15.20;63.60;;;;;;4134482;28;20965;-61
2023/01/23 14:44:19;;;;;;;6.35;5.75;;;15.20;63.50;;;;;;4135443;28;20586;-61
2023/01/23 14:47:02;;;;;;;6.53;5.93;;;15.10;63.60;;;;;;4199370;28;20050;-61
2023/01/23 14:49:46;;;;;;;6.32;5.72;;;15.10;64.10;;;;;;4203931;28;20094;-61
2023/01/23 14:52:30;;;;;;;6.50;5.85;;;15.10;63.90;;;;;;4203887;28;20071;-61
2023/01/23 14:55:21;;;;;;;8.05;5.95;;;15.00;63.90;;;;;;4205918;28;20403;-61